Time;durP1;ratioP1;P1;durP2;ratioP2;P2;SDS_P1;SDS_P2;PMS_P1;PMS_P2;Temp;Humidity;BMP_temperature;BMP_pressure;BME280_temperature;BME280_humidity;BME280_pressure;Samples;Min_cycle;Max_cycle;Signal;HPM_P1;HPM_P2
2023/08/04 00:00:29;;;;;;;0.70;0.60;;;;;;;;;;5065004;28;20212;-63
2023/08/04 00:02:55;;;;;;;0.70;0.70;;;;;;;;;;5064964;28;20231;-63
2023/08/04 00:05:21;;;;;;;3.13;0.88;;;;;;;;;;5064516;28;20197;-63
2023/08/04 00:07:47;;;;;;;0.93;0.90;;;;;;;;;;5065041;28;20272;-63
2023/08/04 00:10:14;;;;;;;1.48;0.90;;;;;;;;;;5064659;28;20197;-63
2023/08/04 00:12:41;;;;;;;1.33;0.70;;;;;;;;;;5064778;28;20365;-63
2023/08/04 00:15:08;;;;;;;1.73;0.70;;;;;;;;;;5064453;28;20201;-63
2023/08/04 00:17:37;;;;;;;1.55;0.82;;;;;;;;;;5065078;28;20203;-63
2023/08/04 00:20:04;;;;;;;0.57;0.50;;;;;;;;;;5064413;28;20229;-63
2023/08/04 00:22:30;;;;;;;2.47;0.70;;;;;;;;;;5064604;28;20197;-64
2023/08/04 00:24:56;;;;;;;1.52;0.70;;;;;;;;;;5064518;28;20570;-64
2023/08/04 00:27:22;;;;;;;1.65;0.88;;;;;;;;;;5064774;28;20243;-63
2023/08/04 00:29:49;;;;;;;1.77;0.73;;;;;;;;;;5064965;28;20201;-63
2023/08/04 00:32:16;;;;;;;0.80;0.80;;;;;;;;;;5064877;28;20254;-63
2023/08/04 00:34:42;;;;;;;4.03;0.90;;;;;;;;;;5064382;28;20205;-63
2023/08/04 00:37:08;;;;;;;2.90;0.93;;;;;;;;;;5064374;28;20205;-63
2023/08/04 00:39:34;;;;;;;1.17;0.93;;;;;;;;;;5064371;28;20213;-63
2023/08/04 00:42:01;;;;;;;0.88;0.88;;;;;;;;;;5064165;28;20209;-63
2023/08/04 00:44:27;;;;;;;1.02;0.93;;;;;;;;;;5064056;28;20196;-63
2023/08/04 00:46:55;;;;;;;1.85;0.90;;;;;;;;;;5063964;28;20212;-63
2023/08/04 00:49:21;;;;;;;3.50;1.15;;;;;;;;;;5064312;28;20247;-63
2023/08/04 00:51:48;;;;;;;2.03;0.70;;;;;;;;;;5063959;28;20228;-63
2023/08/04 00:54:14;;;;;;;2.40;0.98;;;;;;;;;;5063746;28;20207;-63
2023/08/04 00:56:41;;;;;;;2.75;0.90;;;;;;;;;;5064125;28;20435;-63
2023/08/04 00:59:07;;;;;;;4.22;0.82;;;;;;;;;;5063177;28;20225;-63
2023/08/04 01:01:34;;;;;;;1.25;0.88;;;;;;;;;;5063691;28;20505;-63
2023/08/04 01:04:01;;;;;;;2.33;0.85;;;;;;;;;;5063843;28;20432;-63
2023/08/04 01:06:32;;;;;;;2.83;0.70;;;;;;;;;;5055768;28;20239;-63
2023/08/04 01:09:02;;;;;;;1.00;0.60;;;;;;;;;;5063912;28;20412;-63
2023/08/04 01:11:31;;;;;;;0.93;0.90;;;;;;;;;;5055627;28;20198;-63
2023/08/04 01:13:58;;;;;;;0.55;0.55;;;;;;;;;;5063416;28;20211;-63
2023/08/04 01:16:25;;;;;;;1.65;0.93;;;;;;;;;;5063604;28;20193;-63
2023/08/04 01:18:51;;;;;;;3.13;0.85;;;;;;;;;;5063408;28;20228;-63
2023/08/04 01:21:19;;;;;;;3.15;0.52;;;;;;;;;;5063469;28;20527;-63
2023/08/04 01:23:45;;;;;;;3.55;0.80;;;;;;;;;;5063345;28;20535;-63
2023/08/04 01:26:11;;;;;;;4.22;0.70;;;;;;;;;;5063293;28;20201;-63
2023/08/04 01:28:38;;;;;;;0.98;0.80;;;;;;;;;;5063142;28;20231;-63
2023/08/04 01:31:05;;;;;;;0.65;0.65;;;;;;;;;;5063270;28;20200;-63
2023/08/04 01:33:31;;;;;;;0.70;0.70;;;;;;;;;;5063295;28;20204;-63
2023/08/04 01:35:58;;;;;;;1.85;0.70;;;;;;;;;;5062649;28;20201;-64
2023/08/04 01:38:25;;;;;;;1.65;0.98;;;;;;;;;;5063261;28;20225;-63
2023/08/04 01:40:52;;;;;;;2.40;0.73;;;;;;;;;;5063127;28;20592;-64
2023/08/04 01:43:18;;;;;;;1.08;1.00;;;;;;;;;;5062874;28;20205;-63
2023/08/04 01:45:45;;;;;;;0.75;0.75;;;;;;;;;;5063058;28;20201;-63
2023/08/04 01:48:11;;;;;;;0.93;0.80;;;;;;;;;;5062794;28;20215;-63
2023/08/04 01:50:37;;;;;;;0.88;0.70;;;;;;;;;;5062964;28;20204;-63
2023/08/04 01:53:03;;;;;;;1.70;0.70;;;;;;;;;;5062888;28;20208;-63
2023/08/04 01:55:31;;;;;;;1.48;0.70;;;;;;;;;;5054395;28;20197;-63
2023/08/04 01:57:57;;;;;;;1.20;0.77;;;;;;;;;;5063003;28;20530;-63
2023/08/04 02:00:23;;;;;;;1.50;0.80;;;;;;;;;;5062816;28;20411;-63
2023/08/04 02:02:50;;;;;;;1.27;0.50;;;;;;;;;;5062702;28;20201;-63
2023/08/04 02:05:16;;;;;;;0.60;0.60;;;;;;;;;;5062266;28;20205;-63
2023/08/04 02:07:42;;;;;;;1.70;0.75;;;;;;;;;;5062817;28;20207;-63
2023/08/04 02:10:09;;;;;;;1.88;0.63;;;;;;;;;;5061637;28;20197;-63
2023/08/04 02:12:37;;;;;;;1.73;0.68;;;;;;;;;;5062596;28;20208;-63
2023/08/04 02:15:04;;;;;;;1.52;0.82;;;;;;;;;;5062311;28;20208;-63
2023/08/04 02:17:30;;;;;;;1.65;0.60;;;;;;;;;;5062320;28;20204;-63
2023/08/04 02:19:56;;;;;;;0.60;0.52;;;;;;;;;;5062272;28;20228;-63
2023/08/04 02:22:23;;;;;;;2.75;1.10;;;;;;;;;;5062429;28;20204;-63
2023/08/04 02:24:49;;;;;;;1.27;1.00;;;;;;;;;;5062197;28;20213;-63
2023/08/04 02:27:15;;;;;;;2.63;0.88;;;;;;;;;;5062264;28;20224;-63
2023/08/04 02:29:43;;;;;;;1.40;0.70;;;;;;;;;;5062196;28;20519;-63
2023/08/04 02:32:10;;;;;;;0.95;0.70;;;;;;;;;;5061938;28;20263;-63
2023/08/04 02:34:37;;;;;;;3.40;1.23;;;;;;;;;;5062169;28;20197;-63
2023/08/04 02:37:03;;;;;;;3.78;1.10;;;;;;;;;;5062322;28;20563;-63
2023/08/04 02:39:29;;;;;;;2.67;0.75;;;;;;;;;;5062078;28;20225;-63
2023/08/04 02:41:57;;;;;;;1.25;1.15;;;;;;;;;;5061952;28;20208;-63
2023/08/04 02:44:23;;;;;;;2.28;0.90;;;;;;;;;;5061705;28;20532;-63
2023/08/04 02:46:51;;;;;;;0.93;0.65;;;;;;;;;;5061911;28;20397;-63
2023/08/04 02:49:17;;;;;;;0.80;0.70;;;;;;;;;;5061789;28;20499;-63
2023/08/04 02:51:43;;;;;;;5.68;0.90;;;;;;;;;;5061973;28;20201;-63
2023/08/04 02:54:10;;;;;;;1.77;1.00;;;;;;;;;;5061629;28;20200;-63
2023/08/04 02:56:37;;;;;;;1.38;0.80;;;;;;;;;;5061925;28;20197;-63
2023/08/04 02:59:03;;;;;;;2.42;0.80;;;;;;;;;;5061710;28;20212;-63
2023/08/04 03:01:29;;;;;;;2.70;0.75;;;;;;;;;;5061673;28;20223;-63
2023/08/04 03:03:57;;;;;;;1.65;0.93;;;;;;;;;;5061815;28;20201;-63
2023/08/04 03:06:23;;;;;;;2.70;1.25;;;;;;;;;;5061830;28;20201;-63
2023/08/04 03:08:49;;;;;;;3.70;1.00;;;;;;;;;;5061877;28;20208;-63
2023/08/04 03:11:15;;;;;;;1.58;0.90;;;;;;;;;;5061631;28;20204;-63
2023/08/04 03:13:42;;;;;;;1.50;1.00;;;;;;;;;;5061502;28;20280;-63
2023/08/04 03:16:08;;;;;;;2.05;0.90;;;;;;;;;;5061596;28;20201;-63
2023/08/04 03:18:34;;;;;;;1.27;0.73;;;;;;;;;;5061834;28;20213;-63
2023/08/04 03:21:03;;;;;;;3.97;0.98;;;;;;;;;;5062821;28;20225;-63
2023/08/04 03:23:29;;;;;;;2.10;1.10;;;;;;;;;;5065342;28;20209;-63
2023/08/04 03:25:55;;;;;;;2.15;1.15;;;;;;;;;;5065746;28;20527;-63
2023/08/04 03:28:22;;;;;;;1.67;0.80;;;;;;;;;;5065520;28;20227;-63
2023/08/04 03:30:48;;;;;;;3.22;0.93;;;;;;;;;;5065566;28;20207;-63
2023/08/04 03:33:14;;;;;;;1.65;0.90;;;;;;;;;;5065323;28;20271;-63
2023/08/04 03:35:41;;;;;;;0.60;0.60;;;;;;;;;;5065666;28;20403;-63
2023/08/04 03:38:08;;;;;;;1.13;0.70;;;;;;;;;;5065518;28;20212;-63
2023/08/04 03:40:35;;;;;;;0.88;0.57;;;;;;;;;;5065313;28;20209;-63
2023/08/04 03:43:01;;;;;;;4.03;0.93;;;;;;;;;;5065222;28;20209;-63
2023/08/04 03:45:27;;;;;;;2.78;1.15;;;;;;;;;;5065006;28;20207;-63
2023/08/04 03:47:53;;;;;;;1.52;0.88;;;;;;;;;;5065265;28;20229;-63
2023/08/04 03:50:20;;;;;;;3.00;0.80;;;;;;;;;;5065241;28;20260;-63
2023/08/04 03:52:46;;;;;;;1.40;1.00;;;;;;;;;;5065098;28;20212;-63
2023/08/04 03:55:14;;;;;;;3.22;0.95;;;;;;;;;;5065016;28;20518;-63
2023/08/04 03:57:40;;;;;;;1.48;1.05;;;;;;;;;;5065112;28;20235;-63
2023/08/04 04:00:07;;;;;;;2.65;1.00;;;;;;;;;;5065025;28;20228;-63
2023/08/04 04:02:33;;;;;;;1.05;1.00;;;;;;;;;;5065168;28;20196;-63
2023/08/04 04:04:59;;;;;;;1.25;0.88;;;;;;;;;;5064930;28;20208;-63
2023/08/04 04:07:26;;;;;;;1.50;0.93;;;;;;;;;;5064697;28;20201;-63
2023/08/04 04:09:52;;;;;;;1.83;0.70;;;;;;;;;;5065008;28;20217;-63
2023/08/04 04:12:20;;;;;;;1.08;1.00;;;;;;;;;;5064570;28;20209;-63
2023/08/04 04:14:46;;;;;;;0.90;0.90;;;;;;;;;;5064757;28;20470;-63
2023/08/04 04:17:12;;;;;;;0.93;0.93;;;;;;;;;;5064888;28;20522;-64
2023/08/04 04:19:39;;;;;;;2.03;1.00;;;;;;;;;;5056572;28;20304;-64
2023/08/04 04:22:05;;;;;;;2.58;1.30;;;;;;;;;;5064550;28;20208;-64
2023/08/04 04:24:31;;;;;;;1.33;1.23;;;;;;;;;;5064668;28;20209;-64
2023/08/04 04:26:58;;;;;;;1.33;1.10;;;;;;;;;;5064347;28;20208;-64
2023/08/04 04:29:25;;;;;;;2.10;0.90;;;;;;;;;;5064654;28;20225;-64
2023/08/04 04:31:51;;;;;;;2.30;0.90;;;;;;;;;;5064214;28;20205;-64
2023/08/04 04:34:18;;;;;;;1.77;1.00;;;;;;;;;;5063438;28;20201;-64
2023/08/04 04:36:44;;;;;;;3.22;0.90;;;;;;;;;;5064440;28;20404;-64
2023/08/04 04:39:11;;;;;;;2.55;1.00;;;;;;;;;;5064408;28;20231;-64
2023/08/04 04:41:38;;;;;;;1.02;0.80;;;;;;;;;;5063986;28;20231;-64
2023/08/04 04:44:05;;;;;;;0.80;0.80;;;;;;;;;;5064084;28;20201;-64
2023/08/04 04:46:32;;;;;;;0.82;0.70;;;;;;;;;;5063869;28;20207;-64
2023/08/04 04:48:59;;;;;;;0.90;0.90;;;;;;;;;;5064597;28;20497;-66
2023/08/04 04:51:25;;;;;;;3.70;1.10;;;;;;;;;;5064100;28;20402;-64
2023/08/04 04:53:51;;;;;;;0.80;0.80;;;;;;;;;;5063925;28;20268;-64
2023/08/04 04:56:18;;;;;;;1.05;1.00;;;;;;;;;;5063918;28;20449;-64
2023/08/04 04:58:44;;;;;;;3.63;1.13;;;;;;;;;;5064266;28;20213;-64
2023/08/04 05:01:10;;;;;;;1.52;1.10;;;;;;;;;;5064171;28;20224;-64
2023/08/04 05:03:38;;;;;;;1.30;1.08;;;;;;;;;;5063600;28;20197;-64
2023/08/04 05:06:04;;;;;;;3.45;1.05;;;;;;;;;;5063954;28;20216;-64
2023/08/04 05:08:30;;;;;;;4.55;1.50;;;;;;;;;;5063711;28;20268;-64
2023/08/04 05:10:57;;;;;;;3.30;1.63;;;;;;;;;;5063762;28;20204;-64
2023/08/04 05:13:23;;;;;;;3.03;1.35;;;;;;;;;;5063405;28;20208;-64
2023/08/04 05:15:49;;;;;;;2.05;0.98;;;;;;;;;;5063760;28;20201;-64
2023/08/04 05:18:16;;;;;;;1.58;1.10;;;;;;;;;;5063596;28;20205;-65
2023/08/04 05:20:45;;;;;;;1.00;1.00;;;;;;;;;;5055349;28;20224;-65
2023/08/04 05:23:11;;;;;;;5.85;1.05;;;;;;;;;;5063211;28;20258;-65
2023/08/04 05:25:38;;;;;;;1.17;1.00;;;;;;;;;;5063554;28;20205;-65
2023/08/04 05:28:19;;;;;;;3.53;1.55;;;;;;;;;;5063681;28;20225;-65
2023/08/04 05:30:45;;;;;;;4.97;1.70;;;;;;;;;;5055616;28;20209;-65
2023/08/04 05:33:11;;;;;;;6.68;1.50;;;;;;;;;;5063117;28;20201;-65
2023/08/04 05:35:38;;;;;;;5.72;1.25;;;;;;;;;;5062879;28;20221;-65
2023/08/04 05:38:06;;;;;;;2.10;1.33;;;;;;;;;;5063132;28;20196;-65
2023/08/04 05:40:33;;;;;;;5.05;1.58;;;;;;;;;;5063156;28;20274;-65
2023/08/04 05:42:59;;;;;;;4.35;1.48;;;;;;;;;;5063276;28;20220;-65
2023/08/04 05:45:26;;;;;;;6.65;2.08;;;;;;;;;;5062948;28;20243;-65
2023/08/04 05:47:52;;;;;;;3.60;1.65;;;;;;;;;;5062765;28;20208;-65
2023/08/04 05:50:18;;;;;;;4.05;1.88;;;;;;;;;;5062929;28;20199;-65
2023/08/04 05:52:44;;;;;;;1.80;1.70;;;;;;;;;;5063019;28;20211;-65
2023/08/04 05:55:12;;;;;;;7.35;1.60;;;;;;;;;;5062786;28;20223;-65
2023/08/04 05:57:38;;;;;;;4.65;1.45;;;;;;;;;;5062742;28;20228;-65
2023/08/04 06:00:05;;;;;;;5.50;1.50;;;;;;;;;;5062722;28;20197;-65
2023/08/04 06:02:32;;;;;;;3.05;1.85;;;;;;;;;;5062625;28;20220;-65
2023/08/04 06:04:58;;;;;;;2.78;1.35;;;;;;;;;;5062457;28;20205;-65
2023/08/04 06:07:24;;;;;;;3.05;1.13;;;;;;;;;;5062734;28;20219;-65
2023/08/04 06:09:50;;;;;;;4.05;1.20;;;;;;;;;;5062798;28;20198;-65
2023/08/04 06:12:18;;;;;;;3.05;1.25;;;;;;;;;;5063035;28;20193;-65
2023/08/04 06:14:46;;;;;;;4.85;1.60;;;;;;;;;;5062447;28;20203;-65
2023/08/04 06:17:12;;;;;;;2.05;1.25;;;;;;;;;;5062550;28;20361;-65
2023/08/04 06:19:39;;;;;;;2.33;1.00;;;;;;;;;;5062637;28;20205;-65
2023/08/04 06:22:05;;;;;;;0.95;0.85;;;;;;;;;;5062523;28;20217;-65
2023/08/04 06:24:31;;;;;;;1.15;0.90;;;;;;;;;;5062061;28;20197;-54
2023/08/04 06:26:58;;;;;;;4.05;1.15;;;;;;;;;;5054640;28;20216;-54
2023/08/04 06:29:25;;;;;;;1.33;1.23;;;;;;;;;;5053634;28;20227;-55
2023/08/04 06:31:51;;;;;;;0.88;0.88;;;;;;;;;;5050005;28;20217;-53
2023/08/04 06:34:18;;;;;;;1.35;1.10;;;;;;;;;;5053643;28;20477;-53
2023/08/04 06:36:45;;;;;;;1.40;0.90;;;;;;;;;;5053612;28;20209;-53
2023/08/04 06:39:11;;;;;;;0.90;0.90;;;;;;;;;;5054518;28;20532;-53
2023/08/04 06:41:38;;;;;;;2.42;0.90;;;;;;;;;;5054723;28;20231;-52
2023/08/04 06:44:04;;;;;;;3.30;1.13;;;;;;;;;;5049326;28;20216;-54
2023/08/04 06:46:32;;;;;;;0.85;0.77;;;;;;;;;;5041039;28;20216;-53
2023/08/04 06:48:58;;;;;;;2.08;0.90;;;;;;;;;;5048489;28;20584;-52
2023/08/04 06:51:24;;;;;;;2.88;0.80;;;;;;;;;;5045285;28;20237;-52
2023/08/04 06:53:51;;;;;;;8.82;0.93;;;;;;;;;;5052545;28;20231;-53
2023/08/04 06:56:18;;;;;;;3.85;0.90;;;;;;;;;;5049296;28;20209;-53
2023/08/04 06:58:44;;;;;;;2.47;0.98;;;;;;;;;;5048182;28;20447;-53
2023/08/04 07:01:11;;;;;;;2.97;1.00;;;;;;;;;;5039500;28;20225;-52
2023/08/04 07:03:38;;;;;;;2.05;1.17;;;;;;;;;;5041668;28;20232;-54
2023/08/04 07:06:05;;;;;;;1.55;1.30;;;;;;;;;;5046398;28;20231;-52
2023/08/04 07:08:31;;;;;;;2.15;1.40;;;;;;;;;;5043681;28;20220;-52
2023/08/04 07:10:58;;;;;;;1.20;1.10;;;;;;;;;;5050451;28;20209;-53
2023/08/04 07:13:24;;;;;;;1.30;1.20;;;;;;;;;;5049473;28;20468;-52
2023/08/04 07:15:56;;;;;;;1.25;1.15;;;;;;;;;;5040258;28;20541;-52
2023/08/04 07:18:22;;;;;;;2.38;1.10;;;;;;;;;;5045401;28;20212;-53
2023/08/04 07:20:50;;;;;;;2.42;1.45;;;;;;;;;;5048817;28;20221;-52
2023/08/04 07:23:16;;;;;;;1.02;1.00;;;;;;;;;;5052359;28;20414;-52
2023/08/04 07:25:43;;;;;;;4.30;1.08;;;;;;;;;;5046190;28;20454;-52
2023/08/04 07:28:09;;;;;;;3.40;1.33;;;;;;;;;;5047539;28;20226;-52
2023/08/04 07:30:37;;;;;;;1.10;1.00;;;;;;;;;;5052912;28;20209;-52
2023/08/04 07:33:05;;;;;;;3.88;1.60;;;;;;;;;;5050065;28;20210;-52
2023/08/04 07:35:31;;;;;;;2.35;1.20;;;;;;;;;;5052489;28;20211;-52
2023/08/04 07:37:59;;;;;;;2.15;1.48;;;;;;;;;;5055073;28;20229;-52
2023/08/04 07:40:25;;;;;;;4.68;1.38;;;;;;;;;;5049736;28;20406;-52
2023/08/04 07:42:51;;;;;;;5.28;0.98;;;;;;;;;;5046849;28;20234;-52
2023/08/04 07:45:18;;;;;;;2.75;1.05;;;;;;;;;;5042052;28;20217;-53
2023/08/04 07:47:44;;;;;;;2.42;1.00;;;;;;;;;;5047853;28;20224;-52
2023/08/04 07:50:10;;;;;;;1.35;0.93;;;;;;;;;;5039339;28;20221;-52
2023/08/04 07:52:37;;;;;;;1.55;1.13;;;;;;;;;;5048719;28;20205;-52
2023/08/04 07:55:05;;;;;;;4.93;1.00;;;;;;;;;;5052733;28;20204;-53
2023/08/04 07:57:31;;;;;;;0.70;0.70;;;;;;;;;;5048679;28;20536;-51
2023/08/04 07:59:57;;;;;;;1.20;0.90;;;;;;;;;;5048909;28;20209;-51
2023/08/04 08:02:23;;;;;;;2.40;1.02;;;;;;;;;;5042646;28;20452;-52
2023/08/04 08:04:50;;;;;;;1.35;1.00;;;;;;;;;;5048309;28;20216;-52
2023/08/04 08:07:16;;;;;;;0.77;0.77;;;;;;;;;;5039644;28;20217;-53
2023/08/04 08:09:42;;;;;;;1.88;0.90;;;;;;;;;;5055788;28;20213;-52
2023/08/04 08:12:10;;;;;;;1.42;0.68;;;;;;;;;;5045774;28;20205;-52
2023/08/04 08:14:36;;;;;;;0.73;0.73;;;;;;;;;;5049366;28;20213;-52
2023/08/04 08:17:03;;;;;;;2.10;0.88;;;;;;;;;;5058019;28;20213;-53
2023/08/04 08:19:29;;;;;;;2.85;0.63;;;;;;;;;;5057063;28;20376;-54
2023/08/04 08:21:56;;;;;;;7.53;1.00;;;;;;;;;;5048131;28;20231;-53
2023/08/04 08:24:22;;;;;;;1.98;0.50;;;;;;;;;;5054397;28;20201;-55
2023/08/04 08:26:48;;;;;;;1.80;0.50;;;;;;;;;;5055318;28;20221;-53
2023/08/04 08:29:16;;;;;;;1.90;0.80;;;;;;;;;;5053536;28;20220;-56
2023/08/04 08:31:42;;;;;;;1.40;0.70;;;;;;;;;;5051936;28;20209;-53
2023/08/04 08:34:08;;;;;;;1.17;0.70;;;;;;;;;;5047823;28;20209;-55
2023/08/04 08:36:34;;;;;;;2.05;0.60;;;;;;;;;;5049820;28;20205;-54
2023/08/04 08:39:01;;;;;;;0.75;0.70;;;;;;;;;;5057810;28;20416;-53
2023/08/04 08:41:27;;;;;;;0.73;0.60;;;;;;;;;;5056904;28;20427;-52
2023/08/04 08:43:53;;;;;;;0.80;0.70;;;;;;;;;;5056805;28;20243;-52
2023/08/04 08:46:21;;;;;;;0.60;0.60;;;;;;;;;;5053729;28;20209;-54
2023/08/04 08:48:49;;;;;;;1.95;0.70;;;;;;;;;;5049074;28;20205;-55
2023/08/04 08:51:16;;;;;;;3.33;0.50;;;;;;;;;;5046210;28;20209;-55
2023/08/04 08:53:43;;;;;;;1.35;0.55;;;;;;;;;;5053907;28;20214;-55
2023/08/04 08:56:10;;;;;;;3.83;0.77;;;;;;;;;;5049807;28;20521;-53
2023/08/04 08:58:37;;;;;;;2.15;0.47;;;;;;;;;;5047900;28;20201;-55
2023/08/04 09:01:03;;;;;;;2.05;0.70;;;;;;;;;;5046919;28;20208;-55
2023/08/04 09:03:31;;;;;;;1.33;0.70;;;;;;;;;;5039752;28;20585;-53
2023/08/04 09:05:57;;;;;;;1.88;0.70;;;;;;;;;;5057215;28;20424;-55
2023/08/04 09:08:23;;;;;;;0.77;0.50;;;;;;;;;;5057123;28;20386;-53
2023/08/04 09:10:49;;;;;;;2.50;0.60;;;;;;;;;;5052257;28;20235;-53
2023/08/04 09:13:16;;;;;;;4.18;0.60;;;;;;;;;;5044213;28;20205;-55
2023/08/04 09:15:49;;;;;;;2.72;0.50;;;;;;;;;;5055284;28;20213;-54
2023/08/04 09:18:24;;;;;;;1.63;0.70;;;;;;;;;;5054623;28;20302;-52
2023/08/04 09:20:57;;;;;;;2.40;0.88;;;;;;;;;;5056463;28;20492;-53
2023/08/04 09:23:24;;;;;;;3.10;0.63;;;;;;;;;;5050957;28;20206;-53
2023/08/04 09:25:53;;;;;;;0.63;0.50;;;;;;;;;;5055350;28;20210;-54
2023/08/04 09:28:20;;;;;;;0.63;0.63;;;;;;;;;;5047168;28;20225;-55
2023/08/04 09:31:00;;;;;;;1.02;0.70;;;;;;;;;;5045969;28;20249;-54
2023/08/04 09:33:26;;;;;;;2.03;0.70;;;;;;;;;;5051797;28;20434;-53
2023/08/04 09:36:01;;;;;;;1.65;0.65;;;;;;;;;;5056414;28;20209;-53
2023/08/04 09:38:28;;;;;;;2.45;0.60;;;;;;;;;;5045290;28;20218;-53
2023/08/04 09:41:00;;;;;;;0.88;0.47;;;;;;;;;;5056083;28;20212;-53
2023/08/04 09:43:26;;;;;;;1.15;0.50;;;;;;;;;;5052812;28;20238;-54
2023/08/04 09:45:54;;;;;;;3.72;0.60;;;;;;;;;;5051897;28;20292;-52
2023/08/04 09:48:25;;;;;;;2.58;0.40;;;;;;;;;;5052173;28;20212;-53
2023/08/04 09:50:51;;;;;;;3.10;0.60;;;;;;;;;;5048819;28;20216;-52
2023/08/04 09:53:18;;;;;;;2.60;0.68;;;;;;;;;;5051294;28;20411;-52
2023/08/04 09:55:45;;;;;;;0.60;0.60;;;;;;;;;;5047706;28;20213;-52
2023/08/04 09:58:11;;;;;;;0.55;0.50;;;;;;;;;;5049978;28;20480;-52
2023/08/04 10:00:38;;;;;;;1.13;0.40;;;;;;;;;;5051483;28;20216;-54
2023/08/04 10:03:04;;;;;;;1.27;0.63;;;;;;;;;;5053906;28;20453;-54
2023/08/04 10:05:30;;;;;;;0.30;0.30;;;;;;;;;;5053433;28;20216;-53
2023/08/04 10:07:57;;;;;;;0.82;0.40;;;;;;;;;;5051278;28;20225;-53
2023/08/04 10:10:25;;;;;;;1.65;0.55;;;;;;;;;;5049018;28;20512;-52
2023/08/04 10:12:52;;;;;;;1.23;0.50;;;;;;;;;;5044100;28;20205;-53
2023/08/04 10:15:18;;;;;;;1.08;0.60;;;;;;;;;;5046304;28;20209;-53
2023/08/04 10:17:47;;;;;;;1.60;0.70;;;;;;;;;;5055604;28;20299;-54
2023/08/04 10:20:13;;;;;;;1.15;0.60;;;;;;;;;;5056140;28;20280;-54
2023/08/04 10:22:42;;;;;;;2.15;0.90;;;;;;;;;;5050924;28;20224;-54
2023/08/04 10:25:15;;;;;;;1.23;0.70;;;;;;;;;;5055300;28;20223;-54
2023/08/04 10:27:47;;;;;;;0.95;0.50;;;;;;;;;;5042984;28;20297;-54
2023/08/04 10:30:14;;;;;;;1.75;0.70;;;;;;;;;;5054988;28;20209;-53
2023/08/04 10:32:41;;;;;;;0.98;0.57;;;;;;;;;;5054234;28;20251;-53
2023/08/04 10:35:08;;;;;;;2.20;0.57;;;;;;;;;;5045358;28;20215;-52
2023/08/04 10:37:44;;;;;;;1.33;0.70;;;;;;;;;;5044085;28;20214;-53
2023/08/04 10:40:11;;;;;;;1.33;0.45;;;;;;;;;;5046746;28;20223;-52
2023/08/04 10:42:57;;;;;;;0.70;0.52;;;;;;;;;;5042717;28;20584;-52
2023/08/04 10:45:25;;;;;;;0.65;0.57;;;;;;;;;;5055252;28;20414;-53
2023/08/04 10:47:52;;;;;;;0.80;0.70;;;;;;;;;;5053234;28;20262;-54
2023/08/04 10:50:19;;;;;;;1.02;0.50;;;;;;;;;;5043649;28;20228;-53
2023/08/04 10:52:46;;;;;;;2.15;0.70;;;;;;;;;;5055429;28;20513;-52
2023/08/04 10:55:13;;;;;;;1.30;0.50;;;;;;;;;;5055079;28;20205;-54
2023/08/04 10:57:39;;;;;;;2.80;0.80;;;;;;;;;;5050117;28;20216;-53
2023/08/04 11:00:07;;;;;;;2.58;0.68;;;;;;;;;;5055289;28;20219;-52
2023/08/04 11:02:35;;;;;;;2.00;0.60;;;;;;;;;;5050367;28;20452;-52
2023/08/04 11:05:03;;;;;;;1.65;0.80;;;;;;;;;;5043857;28;20521;-52
2023/08/04 11:07:29;;;;;;;1.10;0.77;;;;;;;;;;5051299;28;20250;-54
2023/08/04 11:09:56;;;;;;;2.83;0.70;;;;;;;;;;5053817;28;20213;-53
2023/08/04 11:12:22;;;;;;;1.63;0.70;;;;;;;;;;5037174;28;20521;-53
2023/08/04 11:14:49;;;;;;;2.10;0.80;;;;;;;;;;5044864;28;20218;-53
2023/08/04 11:17:17;;;;;;;3.03;0.80;;;;;;;;;;5052389;28;20209;-53
2023/08/04 11:19:45;;;;;;;1.00;0.90;;;;;;;;;;5042066;28;20259;-55
2023/08/04 11:22:12;;;;;;;1.25;0.73;;;;;;;;;;5054274;28;20287;-54
2023/08/04 11:24:39;;;;;;;1.75;1.10;;;;;;;;;;5052861;28;20217;-53
2023/08/04 11:27:05;;;;;;;1.95;1.05;;;;;;;;;;5050558;28;20225;-53
2023/08/04 11:29:32;;;;;;;1.65;1.55;;;;;;;;;;5042931;28;20211;-54
2023/08/04 11:31:58;;;;;;;2.55;1.20;;;;;;;;;;5043189;28;20205;-53
2023/08/04 11:34:24;;;;;;;2.55;0.88;;;;;;;;;;5051008;28;20278;-54
2023/08/04 11:36:52;;;;;;;0.88;0.50;;;;;;;;;;5053321;28;20327;-54
2023/08/04 11:39:18;;;;;;;2.00;0.70;;;;;;;;;;5055656;28;20215;-54
2023/08/04 11:41:45;;;;;;;3.08;0.70;;;;;;;;;;5045488;28;20304;-54
2023/08/04 11:44:11;;;;;;;1.05;0.63;;;;;;;;;;5044750;28;20216;-53
2023/08/04 11:46:38;;;;;;;1.13;0.60;;;;;;;;;;5052089;28;20524;-53
2023/08/04 11:49:05;;;;;;;2.05;0.50;;;;;;;;;;5051098;28;20491;-55
2023/08/04 11:51:31;;;;;;;0.90;0.52;;;;;;;;;;5059298;28;20200;-54
2023/08/04 11:53:59;;;;;;;3.13;0.70;;;;;;;;;;5058720;28;20209;-53
2023/08/04 11:56:25;;;;;;;0.85;0.63;;;;;;;;;;5049512;28;20201;-55
2023/08/04 11:58:54;;;;;;;2.67;0.70;;;;;;;;;;5051492;28;20220;-55
2023/08/04 12:01:27;;;;;;;1.80;0.55;;;;;;;;;;5058690;28;20209;-54
2023/08/04 12:03:53;;;;;;;1.58;0.60;;;;;;;;;;5047469;28;20260;-53
2023/08/04 12:06:20;;;;;;;1.83;0.68;;;;;;;;;;5052596;28;20551;-55
2023/08/04 12:08:50;;;;;;;0.60;0.60;;;;;;;;;;5058398;28;20212;-52
2023/08/04 12:11:18;;;;;;;1.10;0.77;;;;;;;;;;5058576;28;20197;-53
2023/08/04 12:13:44;;;;;;;1.20;0.50;;;;;;;;;;5048860;28;20215;-54
2023/08/04 12:16:11;;;;;;;2.38;0.80;;;;;;;;;;5050299;28;20209;-54
2023/08/04 12:18:39;;;;;;;1.40;0.77;;;;;;;;;;5054023;28;20213;-53
2023/08/04 12:21:05;;;;;;;2.35;0.90;;;;;;;;;;5052511;28;20215;-52
2023/08/04 12:23:31;;;;;;;0.80;0.75;;;;;;;;;;5042075;28;20232;-53
2023/08/04 12:25:58;;;;;;;1.00;0.60;;;;;;;;;;5057363;28;20220;-52
2023/08/04 12:28:25;;;;;;;1.40;0.50;;;;;;;;;;5046151;28;20229;-53
2023/08/04 12:30:52;;;;;;;1.13;0.60;;;;;;;;;;5057681;28;20225;-53
2023/08/04 12:33:18;;;;;;;0.77;0.77;;;;;;;;;;5050829;28;20507;-54
2023/08/04 12:35:44;;;;;;;2.53;0.63;;;;;;;;;;5056232;28;20213;-53
2023/08/04 12:38:12;;;;;;;1.85;0.57;;;;;;;;;;5058096;28;20216;-52
2023/08/04 12:40:39;;;;;;;2.30;0.60;;;;;;;;;;5053932;28;20217;-54
2023/08/04 12:43:05;;;;;;;1.00;0.65;;;;;;;;;;5051682;28;20221;-54
2023/08/04 12:45:33;;;;;;;1.38;0.80;;;;;;;;;;5047621;28;20215;-54
2023/08/04 12:47:59;;;;;;;1.67;0.80;;;;;;;;;;5048733;28;20225;-53
2023/08/04 12:50:25;;;;;;;2.95;0.65;;;;;;;;;;5057709;28;20540;-53
2023/08/04 12:52:51;;;;;;;1.65;0.50;;;;;;;;;;5049881;28;20232;-52
2023/08/04 12:55:18;;;;;;;1.85;0.80;;;;;;;;;;5048314;28;20232;-52
2023/08/04 12:57:44;;;;;;;2.47;0.90;;;;;;;;;;5042870;28;20221;-52
2023/08/04 13:00:11;;;;;;;1.13;0.52;;;;;;;;;;5039995;28;20209;-55
2023/08/04 13:02:38;;;;;;;2.08;0.70;;;;;;;;;;5048625;28;20230;-52
2023/08/04 13:05:05;;;;;;;1.90;0.98;;;;;;;;;;5043656;28;20209;-53
2023/08/04 13:07:31;;;;;;;0.50;0.50;;;;;;;;;;5054219;28;20462;-52
2023/08/04 13:09:58;;;;;;;1.48;0.50;;;;;;;;;;5057062;28;20217;-53
2023/08/04 13:12:24;;;;;;;1.85;0.60;;;;;;;;;;5045001;28;20201;-54
2023/08/04 13:14:50;;;;;;;1.95;0.50;;;;;;;;;;5049661;28;20223;-53
2023/08/04 13:17:17;;;;;;;2.20;0.85;;;;;;;;;;5057895;28;20205;-54
2023/08/04 13:19:47;;;;;;;2.17;0.57;;;;;;;;;;5045766;28;20215;-54
2023/08/04 13:22:13;;;;;;;0.50;0.40;;;;;;;;;;5050685;28;20311;-54
2023/08/04 13:24:39;;;;;;;0.40;0.40;;;;;;;;;;5049424;28;20213;-54
2023/08/04 13:27:08;;;;;;;0.35;0.30;;;;;;;;;;5063408;28;20216;-54
2023/08/04 13:29:35;;;;;;;0.35;0.35;;;;;;;;;;5063313;28;20196;-55
2023/08/04 13:32:02;;;;;;;0.60;0.40;;;;;;;;;;5063471;28;20484;-54
2023/08/04 13:34:28;;;;;;;0.93;0.35;;;;;;;;;;5062818;28;20626;-64
2023/08/04 13:36:55;;;;;;;0.93;0.47;;;;;;;;;;5063174;28;20200;-64
2023/08/04 13:39:22;;;;;;;0.50;0.45;;;;;;;;;;5063526;28;20263;-64
2023/08/04 13:41:48;;;;;;;1.95;0.45;;;;;;;;;;5062641;28;20200;-64
2023/08/04 13:44:14;;;;;;;0.47;0.45;;;;;;;;;;5062341;28;20216;-64
2023/08/04 13:46:40;;;;;;;1.02;0.30;;;;;;;;;;5063124;28;20403;-64
2023/08/04 13:49:07;;;;;;;0.45;0.40;;;;;;;;;;5062312;28;20400;-64
2023/08/04 13:51:33;;;;;;;0.77;0.38;;;;;;;;;;5063415;28;20203;-64
2023/08/04 13:54:01;;;;;;;0.32;0.32;;;;;;;;;;5062733;28;20205;-64
2023/08/04 13:56:27;;;;;;;2.25;0.55;;;;;;;;;;5063112;28;20484;-64
2023/08/04 13:58:53;;;;;;;1.48;0.40;;;;;;;;;;5062841;28;20200;-64
2023/08/04 14:01:19;;;;;;;2.35;0.38;;;;;;;;;;5062732;28;20197;-64
2023/08/04 14:03:46;;;;;;;0.40;0.40;;;;;;;;;;5062512;28;20212;-64
2023/08/04 14:06:12;;;;;;;2.42;0.40;;;;;;;;;;5053440;28;20200;-64
2023/08/04 14:08:38;;;;;;;1.85;0.57;;;;;;;;;;5062852;28;20204;-64
2023/08/04 14:11:06;;;;;;;1.30;0.60;;;;;;;;;;5062736;28;20209;-64
2023/08/04 14:13:32;;;;;;;0.98;0.30;;;;;;;;;;5062531;28;20193;-64
2023/08/04 14:16:07;;;;;;;4.28;0.63;;;;;;;;;;5062642;28;20200;-64
2023/08/04 14:18:33;;;;;;;0.85;0.40;;;;;;;;;;5061912;28;20419;-64
2023/08/04 14:21:00;;;;;;;0.35;0.35;;;;;;;;;;5062866;28;20204;-64
2023/08/04 14:23:26;;;;;;;0.50;0.50;;;;;;;;;;5062834;28;20540;-64
2023/08/04 14:25:52;;;;;;;0.60;0.50;;;;;;;;;;5055839;28;20217;-64
2023/08/04 14:28:21;;;;;;;0.50;0.50;;;;;;;;;;5057548;28;20228;-64
2023/08/04 14:30:47;;;;;;;0.47;0.45;;;;;;;;;;5057949;28;20212;-64
2023/08/04 14:33:14;;;;;;;0.85;0.55;;;;;;;;;;5057495;28;20394;-63
2023/08/04 14:35:41;;;;;;;0.38;0.38;;;;;;;;;;5055843;28;20247;-63
2023/08/04 14:38:07;;;;;;;0.80;0.80;;;;;;;;;;5057731;28;20213;-63
2023/08/04 14:40:33;;;;;;;0.85;0.85;;;;;;;;;;5057599;28;20496;-63